Japan Airlines Virtual Airport Information Service

Xi'an Xianyang International Airport

ICAO: ZLXY Country: China
Latitude: 34.4471 Longitude: 108.752
Latest Arrival : CSN906 (ZPPP-ZLXY) Latest Departure : CES2065 (ZLXY-RJGG)


WX CaptureLIVE
Data provided by noaa.gov | Fetched at 07:20:48

METAR : ZLXY 060700Z 10005MPS 3500 HZ OVC070 13/06 Q1025 NOSIG

TAF : ZLXY 060304Z 0606/0706 06004G09MPS 3000 HZ NSC TX14/0607Z TN03/0622Z


Runway Data for ZLXY
Data provided by openaviationdata.com

Runway ID Mag Var Hdg Length Elevation Surface ILS Freq ILS Id ILS Slope
5 -3 50° 9845 ft 1572 ft Concrete 109.9 IGG 3
23 -3 230° 9845 ft 1572 ft Concrete 110.3 IMM 3

Xi'an Xianyang International Airport, China
Use only for reference purposes



Not for navigational purposes.